Time;durP1;ratioP1;P1;durP2;ratioP2;P2;SDS_P1;SDS_P2;PMS_P1;PMS_P2;Temp;Humidity;BMP_temperature;BMP_pressure;BME280_temperature;BME280_humidity;BME280_pressure;Samples;Min_cycle;Max_cycle;Signal;HPM_P1;HPM_P2
2021/12/15 00:01:27;;;;;;;5.50;0.85;;;29.40;87.90;;;;;;5090615;28;20048;-78
2021/12/15 00:03:55;;;;;;;3.55;1.00;;;29.50;87.50;;;;;;5091088;28;20101;-74
2021/12/15 00:06:27;;;;;;;2.55;0.82;;;29.40;88.00;;;;;;5092908;28;20031;-78
2021/12/15 00:08:58;;;;;;;5.43;0.88;;;29.60;88.60;;;;;;5091263;28;20043;-75
2021/12/15 00:11:32;;;;;;;2.92;0.50;;;29.80;86.30;;;;;;5092265;28;20016;-78
2021/12/15 00:14:01;;;;;;;3.15;0.85;;;29.80;85.30;;;;;;5094279;28;20410;-77
2021/12/15 00:16:29;;;;;;;3.22;0.50;;;30.00;86.30;;;;;;5090687;28;20033;-76
2021/12/15 00:18:57;;;;;;;3.25;0.55;;;30.30;85.00;;;;;;5087291;28;20097;-77
2021/12/15 00:21:31;;;;;;;1.83;0.60;;;30.10;86.10;;;;;;5091211;28;20099;-78
2021/12/15 00:23:59;;;;;;;1.10;0.98;;;30.20;82.60;;;;;;5081275;28;20039;-77
2021/12/15 00:26:26;;;;;;;3.22;0.65;;;30.30;82.80;;;;;;5089542;28;20025;-76
2021/12/15 00:28:54;;;;;;;3.80;0.40;;;30.40;81.70;;;;;;5092706;28;20035;-76
2021/12/15 00:31:22;;;;;;;1.85;0.60;;;30.40;83.60;;;;;;5090477;28;20419;-76
2021/12/15 00:33:52;;;;;;;2.97;0.65;;;30.70;80.80;;;;;;5081984;28;20032;-76
2021/12/15 00:36:19;;;;;;;6.82;0.60;;;31.00;80.20;;;;;;5088203;28;20035;-77
2021/12/15 00:38:47;;;;;;;6.85;0.90;;;31.00;81.00;;;;;;5091062;28;20048;-78
2021/12/15 00:41:14;;;;;;;3.80;0.60;;;31.10;79.70;;;;;;5089454;28;20028;-76
2021/12/15 00:43:42;;;;;;;3.53;0.80;;;31.50;78.50;;;;;;5085628;28;20036;-77
2021/12/15 00:46:10;;;;;;;1.42;0.60;;;31.60;78.10;;;;;;5090104;28;20036;-77
2021/12/15 00:48:38;;;;;;;1.38;0.38;;;31.60;75.70;;;;;;5079190;28;20031;-77
2021/12/15 00:51:06;;;;;;;1.10;0.35;;;31.60;75.40;;;;;;5083385;28;20380;-76
2021/12/15 00:53:33;;;;;;;5.43;1.25;;;31.60;75.80;;;;;;5082475;28;20028;-76
2021/12/15 00:56:01;;;;;;;4.07;0.57;;;31.80;77.00;;;;;;5083140;28;20032;-75
2021/12/15 00:58:28;;;;;;;2.90;0.93;;;32.10;77.50;;;;;;5087128;28;20016;-77
2021/12/15 01:01:01;;;;;;;1.45;0.40;;;32.40;73.90;;;;;;5090169;28;20181;-77
2021/12/15 01:03:32;;;;;;;4.43;0.57;;;32.40;72.40;;;;;;5088732;28;20020;-77
2021/12/15 01:06:07;;;;;;;3.42;0.70;;;32.50;70.80;;;;;;5088728;28;20309;-76
2021/12/15 01:08:40;;;;;;;2.63;1.17;;;32.60;70.00;;;;;;5088079;28;20406;-75
2021/12/15 01:11:25;;;;;;;1.00;0.60;;;32.90;71.20;;;;;;5087450;28;20110;-75
2021/12/15 01:22:27;;;;;;;2.55;0.55;;;33.40;67.20;;;;;;5065248;28;20040;-75
2021/12/15 01:25:02;;;;;;;1.60;0.55;;;33.40;63.80;;;;;;5079551;28;20111;-75
2021/12/15 01:27:30;;;;;;;1.05;0.70;;;33.40;64.10;;;;;;5088427;28;20040;-74
2021/12/15 01:29:57;;;;;;;1.65;0.50;;;33.60;63.60;;;;;;5091155;28;20068;-74
2021/12/15 01:32:25;;;;;;;0.80;0.40;;;33.80;63.30;;;;;;5105670;28;20039;-74
2021/12/15 01:34:53;;;;;;;1.45;0.35;;;33.80;64.40;;;;;;5110135;28;20027;-74
2021/12/15 01:37:20;;;;;;;2.03;0.52;;;33.70;63.40;;;;;;5110440;28;20058;-75
2021/12/15 01:39:53;;;;;;;3.60;0.95;;;33.70;61.50;;;;;;5109581;28;20044;-75
2021/12/15 01:42:23;;;;;;;2.40;0.40;;;33.60;61.80;;;;;;5105606;28;20080;-78
2021/12/15 01:47:36;;;;;;;2.97;0.60;;;34.00;62.20;;;;;;5108175;28;20042;-80
2021/12/15 01:50:05;;;;;;;1.38;0.50;;;34.30;62.80;;;;;;5105125;28;20119;-77
2021/12/15 01:52:36;;;;;;;1.95;0.50;;;34.50;62.30;;;;;;5092739;28;20020;-77
2021/12/15 01:55:11;;;;;;;3.50;0.35;;;34.60;60.20;;;;;;5102717;28;20435;-74
2021/12/15 01:57:38;;;;;;;;;;;34.50;59.60;;;;;;5109080;28;20098;-74
2021/12/15 02:00:24;;;;;;;0.93;0.20;;;34.50;60.40;;;;;;5102740;27;19922;-75
2021/12/15 02:02:52;;;;;;;1.60;0.30;;;34.70;59.90;;;;;;5099549;28;20020;-73
2021/12/15 02:05:21;;;;;;;0.57;0.20;;;34.80;58.90;;;;;;5104930;28;20467;-74
2021/12/15 02:07:49;;;;;;;5.35;0.30;;;34.70;58.60;;;;;;5102924;28;20137;-75
2021/12/15 02:10:19;;;;;;;2.95;0.38;;;34.80;57.70;;;;;;5102193;28;20058;-75
2021/12/15 02:12:47;;;;;;;1.50;0.20;;;34.90;56.90;;;;;;5096152;28;20027;-75
2021/12/15 02:15:23;;;;;;;2.22;0.70;;;35.10;57.60;;;;;;5107396;28;20035;-74
2021/12/15 02:17:50;;;;;;;1.05;0.43;;;35.30;57.40;;;;;;5115465;27;20034;-75
2021/12/15 02:20:21;;;;;;;1.30;0.43;;;35.40;55.90;;;;;;5100949;28;20362;-75
2021/12/15 02:22:48;;;;;;;1.20;0.40;;;35.50;57.20;;;;;;5100761;28;20567;-75
2021/12/15 02:25:16;;;;;;;1.45;0.40;;;35.60;57.40;;;;;;5109021;28;20027;-74
2021/12/15 02:27:44;;;;;;;1.00;0.30;;;35.50;57.20;;;;;;5111661;27;20077;-76
2021/12/15 02:30:42;;;;;;;2.47;0.60;;;35.30;56.50;;;;;;5088027;28;20501;-75
2021/12/15 02:38:42;;;;;;;0.80;0.30;;;35.70;58.30;;;;;;5110408;28;20081;-76
2021/12/15 02:41:23;;;;;;;1.83;0.30;;;35.90;57.50;;;;;;5109509;28;20386;-78
2021/12/15 02:43:52;;;;;;;1.75;0.43;;;36.00;56.00;;;;;;5101639;28;20032;-77
2021/12/15 02:46:21;;;;;;;2.10;0.43;;;36.10;55.50;;;;;;5108338;28;20386;-79
2021/12/15 02:48:49;;;;;;;4.20;0.77;;;36.10;55.20;;;;;;5106285;28;20031;-76
2021/12/15 02:51:17;;;;;;;4.20;0.47;;;36.40;56.00;;;;;;5110664;28;20178;-77
2021/12/15 02:53:45;;;;;;;3.30;0.30;;;36.50;54.50;;;;;;5095998;28;20085;-77
2021/12/15 02:56:14;;;;;;;2.38;0.30;;;36.30;53.70;;;;;;5102359;28;20488;-75
2021/12/15 02:58:50;;;;;;;2.00;0.32;;;36.30;55.20;;;;;;5112509;27;20355;-73
2021/12/15 03:01:29;;;;;;;1.25;0.32;;;36.30;53.50;;;;;;5111910;28;20098;-74
2021/12/15 03:06:38;;;;;;;1.42;0.28;;;36.40;54.40;;;;;;5111269;27;20068;-76
2021/12/15 03:17:22;;;;;;;1.00;0.30;;;36.50;52.40;;;;;;5086271;28;20035;-75
2021/12/15 03:19:52;;;;;;;0.95;0.30;;;36.40;53.00;;;;;;5108920;27;20069;-74
2021/12/15 03:22:20;;;;;;;0.82;0.30;;;36.50;53.00;;;;;;5114731;28;20026;-73
2021/12/15 03:24:48;;;;;;;1.88;0.30;;;36.50;53.50;;;;;;5111011;28;20040;-72
2021/12/15 03:27:20;;;;;;;1.08;0.30;;;36.50;52.30;;;;;;5106239;27;20466;-73
2021/12/15 03:35:34;;;;;;;8.30;1.48;;;36.80;53.10;;;;;;5110839;27;20043;-74
2021/12/15 03:38:02;;;;;;;1.42;0.40;;;36.70;51.50;;;;;;5102433;27;20020;-73
2021/12/15 03:40:39;;;;;;;3.30;0.32;;;36.80;51.90;;;;;;5112249;28;20085;-71
2021/12/15 03:43:13;;;;;;;1.95;0.40;;;36.80;51.30;;;;;;5107356;27;20031;-74
2021/12/15 03:45:47;;;;;;;3.00;0.30;;;37.10;51.10;;;;;;5106941;27;20035;-72
2021/12/15 03:48:19;;;;;;;1.20;0.43;;;37.10;50.20;;;;;;5106748;28;20031;-72
2021/12/15 03:50:50;;;;;;;0.45;0.20;;;36.50;51.50;;;;;;5100408;28;20039;-74
2021/12/15 03:53:18;;;;;;;3.33;0.77;;;35.90;51.30;;;;;;5112673;28;20020;-75
2021/12/15 03:55:45;;;;;;;0.98;0.30;;;35.60;51.40;;;;;;5109459;28;20039;-75
2021/12/15 03:58:16;;;;;;;1.52;0.38;;;35.40;51.10;;;;;;5115245;27;20020;-74
2021/12/15 04:00:50;;;;;;;2.08;0.38;;;35.50;51.10;;;;;;5109130;28;22325;-75
2021/12/15 04:03:34;;;;;;;0.38;0.30;;;35.90;51.20;;;;;;5114950;28;20126;-74
2021/12/15 04:06:04;;;;;;;0.55;0.20;;;36.40;51.40;;;;;;5101681;28;20103;-74
2021/12/15 04:08:34;;;;;;;0.32;0.30;;;36.40;50.30;;;;;;5104312;28;20016;-74
2021/12/15 04:11:04;;;;;;;0.30;0.20;;;36.50;49.10;;;;;;5104706;28;20027;-74
2021/12/15 04:13:32;;;;;;;0.55;0.38;;;36.60;53.30;;;;;;5105600;28;20027;-74
2021/12/15 04:16:06;;;;;;;0.28;0.20;;;36.90;51.10;;;;;;5101589;27;20104;-74
2021/12/15 04:18:34;;;;;;;1.93;0.20;;;37.10;50.00;;;;;;5104538;28;20081;-74
2021/12/15 04:21:02;;;;;;;1.30;0.20;;;37.40;49.60;;;;;;5100824;28;20026;-76
2021/12/15 04:23:29;;;;;;;0.60;0.22;;;37.40;47.50;;;;;;5110819;28;20161;-79
2021/12/15 04:26:00;;;;;;;2.45;0.43;;;37.20;50.60;;;;;;5107919;28;20024;-72
2021/12/15 04:28:34;;;;;;;0.95;0.50;;;37.30;52.30;;;;;;5110523;28;20050;-73
2021/12/15 04:31:06;;;;;;;0.55;0.17;;;37.30;47.50;;;;;;5111546;28;20047;-75
2021/12/15 04:33:41;;;;;;;3.15;0.30;;;37.10;48.50;;;;;;5112727;28;20030;-73
2021/12/15 04:36:11;;;;;;;1.77;0.43;;;36.80;49.10;;;;;;5110745;28;20657;-73
2021/12/15 04:38:41;;;;;;;2.30;0.40;;;36.90;50.50;;;;;;5105837;28;20053;-73
2021/12/15 04:41:11;;;;;;;1.17;0.30;;;37.10;50.70;;;;;;5109077;28;20042;-73
2021/12/15 04:43:40;;;;;;;4.55;0.40;;;37.30;49.60;;;;;;5111312;28;20030;-74
2021/12/15 04:46:10;;;;;;;0.10;0.10;;;37.20;48.60;;;;;;5105248;28;20030;-72
2021/12/15 04:48:40;;;;;;;1.23;0.43;;;37.20;48.40;;;;;;5105341;28;20046;-75
2021/12/15 04:51:08;;;;;;;4.72;0.30;;;37.20;49.10;;;;;;5104857;28;20436;-74
2021/12/15 04:53:37;;;;;;;0.95;0.40;;;37.20;49.80;;;;;;5111556;28;20077;-73
2021/12/15 04:56:06;;;;;;;2.28;0.50;;;37.10;48.00;;;;;;5106735;28;20015;-73
2021/12/15 04:58:35;;;;;;;3.20;0.47;;;37.00;49.00;;;;;;5111120;28;20072;-71
2021/12/15 05:01:06;;;;;;;1.30;0.25;;;36.90;47.70;;;;;;5106286;27;20100;-73
2021/12/15 05:03:34;;;;;;;0.60;0.20;;;36.90;48.80;;;;;;5107634;28;20429;-72
2021/12/15 05:06:02;;;;;;;1.33;0.40;;;37.20;49.70;;;;;;5107458;28;20027;-74
2021/12/15 05:08:30;;;;;;;1.02;0.30;;;37.20;49.70;;;;;;5108476;28;20050;-73
2021/12/15 05:10:58;;;;;;;1.95;0.38;;;37.10;49.40;;;;;;5097160;28;20032;-73
2021/12/15 05:13:27;;;;;;;4.10;0.45;;;36.80;49.70;;;;;;5109951;28;20020;-73
2021/12/15 05:15:55;;;;;;;0.30;0.22;;;36.70;48.80;;;;;;5111707;28;20035;-73
2021/12/15 05:18:23;;;;;;;1.25;0.40;;;36.70;50.00;;;;;;5112311;28;20015;-73
2021/12/15 05:20:52;;;;;;;1.55;0.55;;;37.00;50.70;;;;;;5111798;28;20059;-74
2021/12/15 05:23:20;;;;;;;3.55;0.38;;;36.90;49.40;;;;;;5107935;28;20048;-76
2021/12/15 05:25:49;;;;;;;1.50;0.40;;;36.40;50.70;;;;;;5104404;28;20106;-75
2021/12/15 05:28:16;;;;;;;2.40;0.38;;;35.80;50.10;;;;;;5110449;27;20520;-73
2021/12/15 05:30:44;;;;;;;1.45;0.35;;;35.50;50.90;;;;;;5106282;28;20532;-76
2021/12/15 05:33:11;;;;;;;1.02;0.63;;;35.20;51.00;;;;;;5083571;28;20425;-76
2021/12/15 05:35:39;;;;;;;4.70;0.35;;;34.90;51.50;;;;;;5108759;28;20437;-73
2021/12/15 05:38:08;;;;;;;1.73;0.40;;;34.90;51.70;;;;;;5110680;28;20107;-74
2021/12/15 05:40:36;;;;;;;1.25;0.30;;;34.90;51.80;;;;;;5111389;28;20032;-73
2021/12/15 05:43:05;;;;;;;1.92;0.40;;;35.30;51.40;;;;;;5112981;28;20020;-72
2021/12/15 05:45:36;;;;;;;1.30;0.20;;;35.40;51.10;;;;;;5111518;27;20030;-74
2021/12/15 05:48:05;;;;;;;0.65;0.30;;;35.40;52.10;;;;;;5112009;28;20023;-73
2021/12/15 05:50:34;;;;;;;0.82;0.20;;;35.20;50.30;;;;;;5111221;28;20168;-75
2021/12/15 05:53:02;;;;;;;0.65;0.52;;;35.00;50.80;;;;;;5107173;27;20024;-74
2021/12/15 05:55:30;;;;;;;3.28;0.95;;;34.80;51.90;;;;;;5106448;28;20077;-74
2021/12/15 05:57:57;;;;;;;4.53;0.50;;;34.60;53.30;;;;;;5108842;28;20492;-75
2021/12/15 06:00:30;;;;;;;1.45;0.30;;;34.50;52.70;;;;;;5108084;28;20045;-75
2021/12/15 06:02:58;;;;;;;1.38;0.70;;;34.40;53.20;;;;;;5109822;28;20032;-74
2021/12/15 06:05:26;;;;;;;1.25;0.30;;;34.30;53.50;;;;;;5104870;28;20480;-75
2021/12/15 06:07:54;;;;;;;1.00;0.35;;;34.30;53.00;;;;;;5112304;28;20118;-77
2021/12/15 06:10:25;;;;;;;2.05;0.50;;;34.20;53.20;;;;;;5109467;28;20039;-74
2021/12/15 06:12:55;;;;;;;1.02;0.30;;;34.20;52.80;;;;;;5091603;28;20019;-74
2021/12/15 06:15:25;;;;;;;1.70;0.55;;;34.10;53.80;;;;;;5111292;28;20466;-76
2021/12/15 06:18:00;;;;;;;1.38;0.38;;;34.10;54.30;;;;;;5110946;28;20028;-73
2021/12/15 06:20:29;;;;;;;1.50;0.40;;;34.10;53.90;;;;;;5106951;28;20035;-73
2021/12/15 06:22:59;;;;;;;1.65;0.50;;;34.20;54.80;;;;;;5108869;28;20034;-75
2021/12/15 06:25:28;;;;;;;0.98;0.40;;;34.30;54.50;;;;;;5116407;27;20429;-76
2021/12/15 06:27:56;;;;;;;3.10;0.40;;;34.30;56.00;;;;;;5103931;28;20470;-77
2021/12/15 06:30:23;;;;;;;4.63;0.82;;;34.20;56.90;;;;;;5096226;28;20078;-77
2021/12/15 06:32:51;;;;;;;1.02;0.40;;;34.10;58.00;;;;;;5104442;28;20031;-73
2021/12/15 06:35:19;;;;;;;5.25;0.93;;;33.80;57.90;;;;;;5109254;28;20043;-76
2021/12/15 06:37:46;;;;;;;0.82;0.30;;;33.60;58.80;;;;;;5103640;28;20023;-73
2021/12/15 06:40:14;;;;;;;1.25;0.40;;;33.30;58.90;;;;;;5110586;28;20047;-73
2021/12/15 06:42:43;;;;;;;1.27;0.20;;;33.00;58.30;;;;;;5106255;28;20042;-74
2021/12/15 06:45:15;;;;;;;2.45;0.60;;;32.70;59.60;;;;;;5110292;28;20032;-74
2021/12/15 06:58:30;;;;;;;0.85;0.28;;;32.50;58.20;;;;;;5107476;28;20489;-75
2021/12/15 07:01:00;;;;;;;1.00;0.47;;;32.70;58.00;;;;;;5102216;28;20031;-79
2021/12/15 07:03:28;;;;;;;0.40;0.38;;;32.80;58.30;;;;;;5104392;28;20023;-80
2021/12/15 07:05:56;;;;;;;2.58;0.30;;;33.00;57.90;;;;;;5106482;28;20028;-78
2021/12/15 07:08:27;;;;;;;1.75;0.30;;;33.10;58.10;;;;;;5107131;28;20352;-76
2021/12/15 07:10:55;;;;;;;0.38;0.20;;;33.10;58.30;;;;;;5105928;28;20391;-79
2021/12/15 07:13:25;;;;;;;0.50;0.25;;;33.10;57.70;;;;;;5109128;28;20027;-78
2021/12/15 07:16:00;;;;;;;1.35;0.30;;;33.00;57.40;;;;;;5106719;28;20399;-80
2021/12/15 07:18:38;;;;;;;1.10;0.67;;;32.80;57.80;;;;;;5107073;28;20020;-79
2021/12/15 07:21:10;;;;;;;1.25;0.20;;;32.60;57.70;;;;;;5105042;28;20019;-78
2021/12/15 07:23:38;;;;;;;3.10;1.13;;;32.50;58.30;;;;;;5105262;28;20380;-79
2021/12/15 07:26:06;;;;;;;1.13;0.40;;;32.20;58.30;;;;;;5108010;28;20745;-79
2021/12/15 07:28:34;;;;;;;6.40;0.47;;;32.00;59.00;;;;;;5109763;28;20027;-78
2021/12/15 07:31:02;;;;;;;0.82;0.43;;;31.80;59.20;;;;;;5110550;28;20020;-78
2021/12/15 07:33:30;;;;;;;1.05;0.20;;;31.70;59.80;;;;;;5111357;28;20543;-78
2021/12/15 07:35:58;;;;;;;2.03;0.60;;;31.50;60.40;;;;;;5110048;28;20086;-80
2021/12/15 07:38:26;;;;;;;0.40;0.30;;;31.30;61.10;;;;;;5094714;28;20086;-77
2021/12/15 07:40:54;;;;;;;3.08;0.80;;;31.20;60.90;;;;;;5111217;28;20026;-77
2021/12/15 07:43:24;;;;;;;0.80;0.40;;;31.00;62.60;;;;;;5114613;28;20032;-78
2021/12/15 07:45:55;;;;;;;2.55;0.30;;;30.90;62.70;;;;;;5112619;28;20027;-78
2021/12/15 07:48:25;;;;;;;0.47;0.20;;;30.70;62.70;;;;;;5112600;28;20031;-77
2021/12/15 07:50:58;;;;;;;2.80;0.30;;;30.60;63.80;;;;;;5107574;28;20498;-78
2021/12/15 07:53:25;;;;;;;1.48;0.40;;;30.40;64.40;;;;;;5104903;27;20027;-77
2021/12/15 07:55:54;;;;;;;1.85;0.30;;;30.30;64.70;;;;;;5110070;28;20043;-79
2021/12/15 07:58:22;;;;;;;2.50;0.35;;;30.30;65.20;;;;;;5114974;27;20034;-78
2021/12/15 08:00:52;;;;;;;0.30;0.20;;;30.20;65.90;;;;;;5095477;28;20027;-77
2021/12/15 08:03:20;;;;;;;0.68;0.28;;;30.10;66.80;;;;;;5108965;28;20107;-77
2021/12/15 08:05:50;;;;;;;1.38;0.43;;;30.00;67.90;;;;;;5106528;28;20062;-78
2021/12/15 08:08:18;;;;;;;4.28;0.65;;;29.90;68.50;;;;;;5114104;28;20019;-77
2021/12/15 08:10:48;;;;;;;1.27;0.40;;;29.80;69.40;;;;;;5112209;28;20048;-78
2021/12/15 08:13:16;;;;;;;4.03;0.95;;;29.70;70.30;;;;;;5107977;28;20031;-77
2021/12/15 08:15:44;;;;;;;3.30;0.63;;;29.60;71.10;;;;;;5111315;28;20555;-79
2021/12/15 08:18:12;;;;;;;1.02;0.77;;;29.50;71.10;;;;;;5092896;28;20101;-78
2021/12/15 08:20:41;;;;;;;1.90;0.25;;;29.40;70.70;;;;;;5109070;28;20032;-78
2021/12/15 08:23:09;;;;;;;1.25;0.32;;;29.30;71.10;;;;;;5110850;28;20061;-78
2021/12/15 08:25:38;;;;;;;3.45;0.70;;;29.20;71.30;;;;;;5112970;28;20035;-78
2021/12/15 08:28:07;;;;;;;0.75;0.30;;;29.10;71.10;;;;;;5110896;28;20731;-79
2021/12/15 08:30:36;;;;;;;0.88;0.45;;;29.10;71.40;;;;;;5112050;28;20543;-78
2021/12/15 08:33:07;;;;;;;0.77;0.40;;;29.00;72.00;;;;;;5112420;28;20023;-77
2021/12/15 08:35:41;;;;;;;1.85;0.45;;;28.90;71.70;;;;;;5111551;28;20031;-77
2021/12/15 08:38:11;;;;;;;1.02;0.52;;;28.80;71.70;;;;;;5112045;28;20019;-77
2021/12/15 08:40:40;;;;;;;3.40;0.90;;;28.80;71.20;;;;;;5113032;28;20024;-78
2021/12/15 08:43:12;;;;;;;17.58;3.17;;;28.80;71.50;;;;;;5106823;28;20043;-78
2021/12/15 08:45:42;;;;;;;20.33;1.52;;;28.80;72.40;;;;;;5113098;28;20116;-79
2021/12/15 08:48:11;;;;;;;14.23;1.52;;;28.70;73.10;;;;;;5113358;28;20039;-77
2021/12/15 08:50:41;;;;;;;10.18;0.93;;;28.50;73.90;;;;;;5111391;28;20032;-79
2021/12/15 08:53:11;;;;;;;4.00;0.50;;;28.30;74.70;;;;;;5112868;28;20031;-79
2021/12/15 08:55:41;;;;;;;7.95;0.50;;;28.10;76.60;;;;;;5101697;28;20024;-78
2021/12/15 08:58:11;;;;;;;2.83;0.73;;;28.00;76.80;;;;;;5112212;28;20114;-77
2021/12/15 09:00:43;;;;;;;1.77;0.43;;;27.90;77.70;;;;;;5098993;28;20020;-78
2021/12/15 09:03:12;;;;;;;6.97;0.77;;;27.80;78.30;;;;;;5094855;28;20027;-79
2021/12/15 09:05:41;;;;;;;6.03;0.68;;;27.70;78.70;;;;;;5110431;28;20096;-78
2021/12/15 09:08:10;;;;;;;8.18;1.33;;;27.60;78.00;;;;;;5093389;28;20456;-78
2021/12/15 09:10:40;;;;;;;2.55;0.28;;;27.70;78.20;;;;;;5097968;28;20040;-80
2021/12/15 09:13:09;;;;;;;5.53;0.57;;;27.60;78.10;;;;;;5112326;28;20028;-78
2021/12/15 09:15:37;;;;;;;3.97;0.52;;;27.60;78.80;;;;;;5111770;28;20031;-78
2021/12/15 09:18:05;;;;;;;2.88;0.70;;;27.50;80.30;;;;;;5109626;28;20062;-79
2021/12/15 09:20:35;;;;;;;1.27;0.60;;;27.50;80.80;;;;;;5111720;28;20012;-78
2021/12/15 09:23:08;;;;;;;1.27;0.40;;;27.40;81.30;;;;;;5110656;28;20031;-80
2021/12/15 09:25:37;;;;;;;3.13;0.60;;;27.40;81.20;;;;;;5110736;28;20107;-80
2021/12/15 09:28:05;;;;;;;2.08;0.68;;;27.40;81.40;;;;;;5110130;28;20069;-78
2021/12/15 09:30:34;;;;;;;1.13;0.77;;;27.30;82.10;;;;;;5107184;28;20028;-79
2021/12/15 09:33:02;;;;;;;3.08;0.50;;;27.20;82.00;;;;;;5101100;28;20031;-80
2021/12/15 09:35:31;;;;;;;0.98;0.40;;;27.30;82.10;;;;;;5108156;28;20474;-77
2021/12/15 09:37:59;;;;;;;2.65;0.98;;;27.40;82.30;;;;;;5108179;28;20027;-78
2021/12/15 09:40:27;;;;;;;2.85;0.73;;;27.40;82.50;;;;;;5111084;28;20028;-78
2021/12/15 09:42:55;;;;;;;1.08;0.50;;;27.40;82.20;;;;;;5112059;28;20027;-78
2021/12/15 09:45:49;;;;;;;1.65;0.80;;;27.40;82.80;;;;;;5103743;28;20089;-78
2021/12/15 10:05:03;;;;;;;1.05;0.40;;;26.80;85.00;;;;;;5109924;28;20413;-78
2021/12/15 10:10:47;;;;;;;4.88;0.82;;;26.80;84.20;;;;;;5045422;28;20095;-76
2021/12/15 10:19:23;;;;;;;1.63;0.52;;;26.40;90.60;;;;;;5108330;28;22258;-77
2021/12/15 10:22:15;;;;;;;1.20;0.40;;;26.00;91.50;;;;;;5098476;28;20032;-77
2021/12/15 10:25:01;;;;;;;6.03;0.90;;;25.80;92.00;;;;;;5102475;28;20103;-78
2021/12/15 10:27:34;;;;;;;;;;;25.60;93.40;;;;;;5111393;28;20020;-78
2021/12/15 10:30:41;;;;;;;6.90;0.80;;;25.50;94.20;;;;;;5111607;28;19968;-78
2021/12/15 10:33:20;;;;;;;2.42;0.70;;;25.50;94.90;;;;;;5099498;28;20106;-77
2021/12/15 10:36:03;;;;;;;4.70;1.00;;;25.40;96.50;;;;;;5101159;27;20494;-77
2021/12/15 10:38:32;;;;;;;2.08;0.40;;;25.20;97.00;;;;;;5104859;28;20036;-78
2021/12/15 10:41:23;;;;;;;2.78;0.60;;;25.20;98.20;;;;;;5109443;28;20047;-77
2021/12/15 10:44:02;;;;;;;4.35;0.80;;;25.10;98.60;;;;;;5111915;28;20053;-78
2021/12/15 10:46:39;;;;;;;2.28;1.30;;;25.20;99.00;;;;;;5109105;28;20031;-77
2021/12/15 10:49:18;;;;;;;4.03;0.80;;;25.00;99.90;;;;;;5111843;28;20024;-78
2021/12/15 10:51:54;;;;;;;3.30;0.90;;;24.90;99.90;;;;;;5108973;28;20051;-77
2021/12/15 10:54:27;;;;;;;3.85;1.00;;;24.90;99.90;;;;;;5111324;28;20530;-77
2021/12/15 10:57:09;;;;;;;6.40;1.15;;;24.90;99.90;;;;;;5104615;28;20028;-75
2021/12/15 10:59:43;;;;;;;1.60;0.70;;;24.90;99.90;;;;;;5111710;28;20019;-76
2021/12/15 11:02:27;;;;;;;2.65;0.73;;;25.00;99.90;;;;;;5108386;28;20031;-77
2021/12/15 11:05:02;;;;;;;6.80;1.15;;;25.10;99.90;;;;;;5111214;28;20016;-78
2021/12/15 11:07:37;;;;;;;4.90;1.13;;;25.10;99.90;;;;;;5090602;28;20444;-77
2021/12/15 11:10:20;;;;;;;8.13;1.83;;;25.10;99.90;;;;;;5096968;28;20039;-77
2021/12/15 11:13:03;;;;;;;4.28;1.30;;;25.10;99.90;;;;;;5108267;28;20030;-76
2021/12/15 11:15:40;;;;;;;3.97;1.52;;;25.00;99.90;;;;;;5102554;28;20084;-77
2021/12/15 11:18:21;;;;;;;5.43;1.10;;;24.90;99.90;;;;;;5102498;28;20023;-77
2021/12/15 11:20:54;;;;;;;4.45;1.02;;;24.90;99.90;;;;;;5104005;27;20403;-78
2021/12/15 11:23:27;;;;;;;5.55;1.23;;;24.90;99.90;;;;;;5107684;28;20386;-77
2021/12/15 11:25:56;;;;;;;3.40;0.80;;;24.90;99.90;;;;;;5111757;28;20047;-77
2021/12/15 11:28:25;;;;;;;5.28;1.38;;;24.70;99.90;;;;;;5109162;27;20114;-76
2021/12/15 11:30:59;;;;;;;5.85;1.13;;;24.70;99.90;;;;;;5107925;28;20129;-76
2021/12/15 11:33:37;;;;;;;3.63;1.13;;;24.50;99.90;;;;;;5112633;28;20034;-77
2021/12/15 11:36:14;;;;;;;4.20;1.35;;;24.40;99.90;;;;;;5109725;28;20024;-78
2021/12/15 11:38:50;;;;;;;2.58;1.10;;;24.30;99.90;;;;;;5113174;28;20043;-78
2021/12/15 11:41:25;;;;;;;2.78;1.55;;;24.20;99.90;;;;;;5108588;28;20016;-79
2021/12/15 11:43:59;;;;;;;6.47;2.03;;;24.20;99.90;;;;;;5102651;28;20024;-77
2021/12/15 11:46:27;;;;;;;4.75;1.20;;;24.10;99.90;;;;;;5112507;28;20028;-76
2021/12/15 11:49:00;;;;;;;5.57;1.00;;;24.10;99.90;;;;;;5112515;28;20027;-76
2021/12/15 11:51:39;;;;;;;4.28;1.20;;;24.10;99.90;;;;;;5108313;28;20031;-76
2021/12/15 11:54:18;;;;;;;2.13;1.15;;;24.00;99.90;;;;;;5110914;28;20032;-76
2021/12/15 11:56:51;;;;;;;4.60;1.48;;;23.90;99.90;;;;;;5104876;28;20054;-75
2021/12/15 11:59:40;;;;;;;5.53;1.58;;;23.80;99.90;;;;;;5107094;28;20395;-77
2021/12/15 12:02:10;;;;;;;2.47;0.80;;;23.70;99.90;;;;;;5101061;28;20016;-75
2021/12/15 12:05:02;;;;;;;3.05;1.25;;;23.70;99.90;;;;;;5108320;28;20028;-77
2021/12/15 12:07:37;;;;;;;4.78;0.90;;;23.60;99.90;;;;;;5098405;28;20028;-76
2021/12/15 12:10:23;;;;;;;7.90;1.48;;;23.60;99.90;;;;;;5093675;28;20032;-77
2021/12/15 12:12:58;;;;;;;5.53;1.60;;;23.60;99.90;;;;;;5110303;28;20027;-76
2021/12/15 12:15:28;;;;;;;2.58;1.15;;;23.60;99.90;;;;;;5102597;28;20059;-76
2021/12/15 12:18:00;;;;;;;4.07;1.20;;;23.50;99.90;;;;;;5104618;27;20052;-76
2021/12/15 12:20:32;;;;;;;5.20;1.52;;;23.60;99.90;;;;;;5109783;28;20115;-80
2021/12/15 12:23:01;;;;;;;5.82;1.08;;;23.50;99.90;;;;;;5106199;28;20015;-77
2021/12/15 12:25:35;;;;;;;3.58;1.52;;;23.50;99.90;;;;;;5107422;28;20024;-77
2021/12/15 12:28:04;;;;;;;5.88;1.85;;;23.40;99.90;;;;;;5113342;28;20108;-77
2021/12/15 12:30:38;;;;;;;5.00;1.45;;;23.40;99.90;;;;;;5099706;28;20044;-77
2021/12/15 12:33:09;;;;;;;4.38;1.25;;;23.40;99.90;;;;;;5112887;28;20027;-78
2021/12/15 12:35:54;;;;;;;4.57;1.30;;;23.40;99.90;;;;;;5106171;28;20226;-77
2021/12/15 12:38:27;;;;;;;3.10;1.10;;;23.30;99.90;;;;;;5114560;28;20556;-76
2021/12/15 12:40:57;;;;;;;5.28;1.45;;;23.20;99.90;;;;;;5104184;28;20478;-78
2021/12/15 12:43:29;;;;;;;8.35;1.55;;;23.10;99.90;;;;;;5110645;28;20029;-77
2021/12/15 12:46:12;;;;;;;3.45;1.45;;;23.10;99.90;;;;;;5111384;28;20084;-75
2021/12/15 13:00:36;;;;;;;6.07;1.95;;;22.90;99.90;;;;;;5104957;28;20070;-78
2021/12/15 13:03:05;;;;;;;3.65;0.90;;;22.90;99.90;;;;;;5108118;28;20376;-76
2021/12/15 13:05:37;;;;;;;3.47;1.30;;;22.90;99.90;;;;;;5105640;28;20019;-77
2021/12/15 13:08:32;;;;;;;2.88;1.35;;;22.80;99.90;;;;;;5107725;28;20039;-76
2021/12/15 13:11:17;;;;;;;3.05;1.42;;;22.70;99.90;;;;;;5091132;28;20042;-76
2021/12/15 13:14:03;;;;;;;5.38;1.13;;;22.60;99.90;;;;;;5088746;28;20370;-77
2021/12/15 13:16:38;;;;;;;8.88;1.55;;;22.50;99.90;;;;;;5106819;28;20024;-75
2021/12/15 13:19:25;;;;;;;8.30;1.27;;;22.40;99.90;;;;;;5101618;28;20050;-77
2021/12/15 13:31:21;;;;;;;5.35;1.13;;;22.10;99.90;;;;;;5106675;27;20046;-77
2021/12/15 13:33:50;;;;;;;4.82;1.50;;;22.10;99.90;;;;;;5093206;28;20032;-75
2021/12/15 13:36:32;;;;;;;3.28;1.10;;;22.00;99.90;;;;;;5111960;28;20504;-76
2021/12/15 13:39:08;;;;;;;8.07;1.33;;;21.90;99.90;;;;;;5112399;28;20032;-78
2021/12/15 13:41:41;;;;;;;9.63;2.38;;;21.90;99.90;;;;;;5101142;28;20024;-77
2021/12/15 13:44:57;;;;;;;12.75;1.67;;;21.90;99.90;;;;;;5111918;28;20039;-75
2021/12/15 13:47:26;;;;;;;5.78;1.17;;;21.90;99.90;;;;;;5109318;28;20051;-77
2021/12/15 13:49:54;;;;;;;6.18;1.25;;;21.90;99.90;;;;;;5112217;28;20049;-76
2021/12/15 13:52:30;;;;;;;5.53;1.23;;;21.90;99.90;;;;;;5110604;28;20084;-76
2021/12/15 13:55:08;;;;;;;3.90;1.02;;;21.90;99.90;;;;;;5113537;28;20119;-77
2021/12/15 13:57:46;;;;;;;3.88;1.15;;;21.80;99.90;;;;;;5111540;28;20019;-77
2021/12/15 14:00:30;;;;;;;4.43;1.40;;;21.80;99.90;;;;;;5113239;28;20050;-77
2021/12/15 14:03:03;;;;;;;3.33;1.35;;;21.80;99.90;;;;;;5110676;28;20023;-77
2021/12/15 14:05:36;;;;;;;6.28;1.98;;;21.80;99.90;;;;;;5111927;28;20111;-76
2021/12/15 14:08:14;;;;;;;3.63;1.33;;;21.80;99.90;;;;;;5111459;28;20449;-77
2021/12/15 14:10:50;;;;;;;6.45;1.83;;;21.80;99.90;;;;;;5111505;28;20066;-76
2021/12/15 14:13:17;;;;;;;5.28;1.38;;;21.80;99.90;;;;;;5104385;28;20024;-76
2021/12/15 14:15:48;;;;;;;3.80;1.52;;;21.90;99.90;;;;;;5109816;28;20032;-76
2021/12/15 14:18:17;;;;;;;4.85;1.40;;;21.90;99.90;;;;;;5093063;28;20098;-76
2021/12/15 14:20:59;;;;;;;3.00;1.00;;;21.90;99.90;;;;;;5110216;28;20028;-75
2021/12/15 14:23:48;;;;;;;4.03;1.13;;;22.00;99.90;;;;;;5113001;28;20023;-76
2021/12/15 14:26:20;;;;;;;2.60;0.95;;;22.00;99.90;;;;;;5099014;28;20043;-77
2021/12/15 14:28:54;;;;;;;5.85;1.13;;;22.00;99.90;;;;;;5111204;28;20533;-76
2021/12/15 14:31:31;;;;;;;4.20;1.52;;;22.00;99.90;;;;;;5106976;28;20463;-75
2021/12/15 14:34:11;;;;;;;3.60;0.93;;;22.00;99.90;;;;;;5104402;28;20059;-75
2021/12/15 14:36:48;;;;;;;4.18;0.90;;;22.00;99.90;;;;;;5111221;28;20122;-75
2021/12/15 14:39:22;;;;;;;6.22;2.00;;;22.00;99.90;;;;;;5112364;28;20043;-77
2021/12/15 14:41:56;;;;;;;5.68;1.30;;;22.00;99.90;;;;;;5110640;28;20028;-76
2021/12/15 14:44:27;;;;;;;4.75;1.45;;;22.00;99.90;;;;;;5112044;28;20425;-77